Erie (ERI/KERI)

Map

Destinations

Information

Location
Erie, PA
Local Time
19:23 / 7:23 pm
GMT Time
00:23 / 12:23 am
Gates
Unassigned
No FAA reported delays
METAR KERI 222351Z 19009KT 10SM FEW027 OVC034 15/11 A2981 RMK AO2 SLP094 T01500111 10161 20144 53000
TAF KERI 222320Z 2300/2324 20008KT P6SM OVC025 FM230500 18010KT P6SM OVC015 FM231200 20014G20KT 6SM HZ OVC012 FM232000 23012KT P6SM OVC025 FM232200 26010KT P6SM OVC025
  • No charts available